Time;durP1;ratioP1;P1;durP2;ratioP2;P2;SDS_P1;SDS_P2;PMS_P1;PMS_P2;Temp;Humidity;BMP_temperature;BMP_pressure;BME280_temperature;BME280_humidity;BME280_pressure;Samples;Min_cycle;Max_cycle;Signal;HPM_P1;HPM_P2
2023/08/29 00:00:28;;;;;;;0.62;0.52;;;;;;;24.52;60.51;98361.13;5326496;26;20389;-95
2023/08/29 00:02:53;;;;;;;0.40;0.40;;;;;;;24.39;60.50;98358.19;5326552;26;20067;-95
2023/08/29 00:05:19;;;;;;;2.25;0.85;;;;;;;24.54;60.51;98350.31;5326182;26;20091;-95
2023/08/29 00:07:45;;;;;;;0.90;0.85;;;;;;;24.61;60.52;98348.66;5307747;26;20388;-94
2023/08/29 00:10:10;;;;;;;0.50;0.50;;;;;;;24.63;60.52;98347.47;5307411;26;20091;-95
2023/08/29 00:12:36;;;;;;;2.08;1.25;;;;;;;24.86;60.53;98339.56;5325918;26;20056;-94
2023/08/29 00:15:04;;;;;;;7.07;1.55;;;;;;;24.74;60.52;98348.91;5326354;26;20364;-94
2023/08/29 00:17:34;;;;;;;0.15;0.15;;;;;;;24.80;60.52;98356.19;5326782;26;20075;-95
2023/08/29 00:20:00;;;;;;;1.67;1.30;;;;;;;24.69;60.52;98364.56;5326452;26;20054;-94
2023/08/29 00:22:28;;;;;;;1.08;0.95;;;;;;;24.66;60.51;98347.13;5311743;26;20052;-94
2023/08/29 00:24:53;;;;;;;0.25;0.25;;;;;;;24.63;60.51;98355.44;5312246;26;20043;-94
2023/08/29 00:27:34;;;;;;;;;;;;;;;;;;;;;
2023/08/29 00:30:04;;;;;;;0.10;0.10;;;;;;;24.55;60.51;98373.25;5334066;26;35743;-95
2023/08/29 00:32:33;;;;;;;0.10;0.10;;;;;;;24.38;60.50;98377.81;5312960;26;20052;-96
2023/08/29 00:34:58;;;;;;;0.85;0.82;;;;;;;24.42;60.50;98382.59;5331053;26;20056;-95
2023/08/29 00:40:37;;;;;;;;;;;;;;;;;;;;;
2023/08/29 00:43:12;;;;;;;0.60;0.60;;;;;;;24.42;60.50;98416.34;5332363;26;35582;-93
2023/08/29 00:45:40;;;;;;;0.52;0.52;;;;;;;24.37;60.50;98426.66;5311881;26;20060;-93
2023/08/29 00:48:11;;;;;;;0.28;0.28;;;;;;;24.77;60.53;98436.38;5312049;26;20092;-93
2023/08/29 00:50:37;;;;;;;0.10;0.10;;;;;;;24.67;60.51;98414.47;5311169;26;20066;-92
2023/08/29 00:53:06;;;;;;;0.47;0.47;;;;;;;24.61;60.51;98396.53;5311827;26;20113;-92
2023/08/29 00:55:33;;;;;;;0.62;0.50;;;;;;;24.83;60.52;98424.22;5312322;26;20109;-92
2023/08/29 00:57:59;;;;;;;1.17;0.30;;;;;;;24.52;60.51;98448.91;5312020;26;20056;-92
2023/08/29 01:00:26;;;;;;;4.22;1.45;;;;;;;24.26;60.49;98461.56;5311797;26;20020;-92
2023/08/29 01:02:51;;;;;;;1.17;1.05;;;;;;;24.40;60.51;98464.41;5311595;26;20047;-93
2023/08/29 01:05:17;;;;;;;1.20;1.10;;;;;;;24.44;60.50;98475.53;5311508;26;20094;-93
2023/08/29 01:07:45;;;;;;;1.45;1.35;;;;;;;24.56;60.51;98484.81;5311696;26;20142;-93
2023/08/29 01:10:10;;;;;;;2.10;0.77;;;;;;;24.65;60.52;98481.16;5311911;26;20107;-92
2023/08/29 01:12:52;;;;;;;0.50;0.50;;;;;;;24.61;60.51;98474.53;5311310;26;20084;-92
2023/08/29 01:15:22;;;;;;;2.22;0.95;;;;;;;24.48;60.50;98456.41;5311733;26;20064;-93
2023/08/29 01:17:55;;;;;;;0.00;0.00;;;;;;;24.60;60.50;98456.03;5311228;26;20068;-93
2023/08/29 01:20:21;;;;;;;0.55;0.55;;;;;;;24.44;60.50;98446.28;5311506;26;20117;-91
2023/08/29 01:23:15;;;;;;;0.35;0.35;;;;;;;24.62;60.51;98441.59;5311541;26;20052;-92
2023/08/29 01:26:12;;;;;;;0.50;0.50;;;;;;;24.53;60.51;98428.47;5348559;26;20076;-92
2023/08/29 01:28:38;;;;;;;0.62;0.62;;;;;;;24.44;60.50;98406.38;5329818;26;20684;-92
2023/08/29 01:31:04;;;;;;;6.05;2.20;;;;;;;24.19;60.49;98403.72;5311269;26;20044;-92
2023/08/29 01:33:30;;;;;;;1.40;0.85;;;;;;;24.27;60.49;98410.84;5330874;26;20027;-92
2023/08/29 01:35:56;;;;;;;2.47;0.77;;;;;;;24.22;60.49;98401.72;5312134;26;20105;-92
2023/08/29 01:38:21;;;;;;;2.85;0.75;;;;;;;24.19;60.49;98387.78;5311596;26;20078;-93
2023/08/29 01:40:47;;;;;;;1.17;1.10;;;;;;;24.23;60.50;98385.59;5311220;26;20404;-91
2023/08/29 01:43:12;;;;;;;1.02;0.93;;;;;;;23.95;60.48;98384.31;5312228;26;20668;-91
2023/08/29 01:45:38;;;;;;;2.30;2.10;;;;;;;23.87;60.47;98367.34;5312234;26;20333;-92
2023/08/29 01:48:04;;;;;;;1.55;0.98;;;;;;;23.69;60.46;98365.88;5312348;26;20061;-92
2023/08/29 01:50:31;;;;;;;0.15;0.15;;;;;;;23.72;60.46;98363.72;5312510;26;20182;-92
2023/08/29 01:52:56;;;;;;;0.22;0.22;;;;;;;23.71;60.46;98353.25;5312624;26;20067;-92
2023/08/29 01:55:21;;;;;;;3.80;0.62;;;;;;;23.80;60.47;98352.25;5312325;26;20060;-91
2023/08/29 01:57:47;;;;;;;1.37;0.50;;;;;;;23.82;60.47;98366.19;5312231;26;20060;-93
2023/08/29 02:00:13;;;;;;;0.60;0.60;;;;;;;23.74;60.47;98372.34;5312171;26;20402;-92
2023/08/29 02:02:38;;;;;;;1.27;0.57;;;;;;;23.68;60.47;98374.84;5330557;26;20047;-92
2023/08/29 02:05:04;;;;;;;1.25;1.15;;;;;;;23.74;60.46;98379.50;5330708;26;20451;-93
2023/08/29 02:07:29;;;;;;;0.20;0.20;;;;;;;24.02;60.48;98394.09;5312604;26;20111;-91
2023/08/29 02:09:55;;;;;;;0.88;0.60;;;;;;;24.07;60.48;98412.19;5312512;26;20414;-92
2023/08/29 02:12:20;;;;;;;0.60;0.60;;;;;;;23.87;60.47;98406.38;5311740;26;20090;-92
2023/08/29 02:14:47;;;;;;;0.70;0.70;;;;;;;23.84;60.47;98422.66;5311990;26;20056;-92
2023/08/29 02:17:24;;;;;;;0.80;0.80;;;;;;;23.78;60.47;98418.84;5312555;26;20059;-92
2023/08/29 02:20:00;;;;;;;0.77;0.70;;;;;;;23.76;60.47;98404.06;5313132;26;20048;-94
2023/08/29 02:22:36;;;;;;;0.35;0.35;;;;;;;23.82;60.47;98398.09;5310483;26;20051;-93
2023/08/29 02:25:10;;;;;;;0.47;0.47;;;;;;;23.77;60.47;98392.44;5290576;26;20056;-93
2023/08/29 02:27:35;;;;;;;0.20;0.20;;;;;;;23.78;60.46;98391.44;5292769;26;20059;-92
2023/08/29 02:30:04;;;;;;;2.58;1.48;;;;;;;23.81;60.47;98376.00;5290077;26;20101;-93
2023/08/29 02:32:29;;;;;;;0.62;0.62;;;;;;;23.78;60.46;98344.44;5290909;26;20044;-93
2023/08/29 02:39:07;;;;;;;0.15;0.15;;;;;;;23.86;60.47;98346.25;5170548;27;20123;-95
2023/08/29 02:45:45;;;;;;;2.55;1.67;;;;;;;23.82;60.47;98323.69;5129503;28;20062;-94
2023/08/29 02:48:10;;;;;;;2.05;0.70;;;;;;;23.88;60.46;98328.31;5147075;27;20077;-90
2023/08/29 02:50:36;;;;;;;0.93;0.60;;;;;;;23.78;60.46;98333.00;5177851;27;20420;-91
2023/08/29 02:53:02;;;;;;;0.70;0.57;;;;;;;23.52;60.45;98333.97;5255540;26;24488;-90
2023/08/29 02:55:28;;;;;;;0.28;0.25;;;;;;;23.57;60.45;98333.50;5289934;26;20053;-90
2023/08/29 02:57:53;;;;;;;1.30;1.20;;;;;;;23.55;60.45;98324.81;5289940;26;20405;-92
2023/08/29 03:00:19;;;;;;;0.60;0.45;;;;;;;23.62;60.46;98338.31;5289939;26;20398;-93
2023/08/29 03:02:44;;;;;;;2.47;1.50;;;;;;;23.57;60.46;98336.97;5290250;26;20341;-93
2023/08/29 03:23:51;;;;;;;;;;;;;;;;;;;;;
2023/08/29 03:29:41;;;;;;;0.85;0.82;;;;;;;23.25;60.44;98334.28;5110869;27;20079;-92
2023/08/29 03:32:06;;;;;;;1.33;0.32;;;;;;;23.30;60.44;98341.75;5208869;26;20437;-92
2023/08/29 03:34:33;;;;;;;0.52;0.52;;;;;;;23.32;60.44;98342.41;5288666;26;20076;-92
2023/08/29 03:36:59;;;;;;;1.62;1.27;;;;;;;23.26;60.43;98335.94;5288685;26;20075;-92
2023/08/29 03:39:24;;;;;;;0.20;0.20;;;;;;;23.41;60.44;98336.09;5289811;26;20076;-92
2023/08/29 03:41:50;;;;;;;0.32;0.32;;;;;;;23.25;60.43;98334.28;5289761;26;20283;-92
2023/08/29 03:44:15;;;;;;;0.85;0.85;;;;;;;23.31;60.44;98330.13;5289788;26;20068;-91
2023/08/29 03:46:41;;;;;;;7.10;1.62;;;;;;;23.38;60.45;98326.63;5290016;26;20103;-91
2023/08/29 03:49:06;;;;;;;0.45;0.30;;;;;;;23.34;60.44;98325.31;5289818;26;20104;-91
2023/08/29 03:51:32;;;;;;;0.75;0.75;;;;;;;23.44;60.45;98341.09;5289444;26;20052;-92
2023/08/29 03:53:57;;;;;;;0.62;0.62;;;;;;;23.29;60.44;98330.28;5289478;26;20060;-92
2023/08/29 03:56:23;;;;;;;3.97;1.80;;;;;;;23.25;60.44;98321.81;5307146;26;20146;-93
2023/08/29 03:58:49;;;;;;;0.68;0.62;;;;;;;23.28;60.44;98313.53;5289644;26;20075;-92
2023/08/29 04:01:14;;;;;;;1.67;0.70;;;;;;;23.25;60.43;98328.97;5284011;27;210675;-93
2023/08/29 04:03:40;;;;;;;0.62;0.62;;;;;;;23.24;60.44;98327.31;5285397;26;20060;-93
2023/08/29 04:06:06;;;;;;;2.47;1.30;;;;;;;23.06;60.43;98334.56;5289349;26;20067;-92
2023/08/29 04:08:32;;;;;;;0.70;0.68;;;;;;;23.12;60.42;98331.25;5308193;26;20075;-92
2023/08/29 04:10:57;;;;;;;1.85;1.75;;;;;;;23.22;60.44;98331.94;5326058;26;20123;-92
2023/08/29 04:13:26;;;;;;;0.98;0.98;;;;;;;23.25;60.43;98334.28;5289416;26;20094;-93
2023/08/29 04:15:51;;;;;;;1.87;1.20;;;;;;;23.15;60.43;98344.19;5289359;26;20065;-93
2023/08/29 04:18:17;;;;;;;0.80;0.62;;;;;;;23.01;60.42;98345.66;5289564;26;20393;-91
2023/08/29 04:20:43;;;;;;;0.20;0.20;;;;;;;23.26;60.43;98351.84;5289806;26;20074;-91
2023/08/29 04:23:10;;;;;;;0.00;0.00;;;;;;;23.30;60.44;98347.87;5310725;26;20060;-91
2023/08/29 04:25:36;;;;;;;1.08;0.90;;;;;;;23.37;60.44;98350.69;5311899;26;20060;-92
2023/08/29 04:28:04;;;;;;;0.22;0.22;;;;;;;23.40;60.44;98363.66;5310893;26;20070;-92
2023/08/29 04:30:29;;;;;;;0.68;0.65;;;;;;;23.30;60.44;98371.78;5311011;26;20044;-92
2023/08/29 04:32:57;;;;;;;0.57;0.35;;;;;;;23.27;60.44;98364.13;5311094;26;20122;-92
2023/08/29 04:35:23;;;;;;;5.28;1.27;;;;;;;23.28;60.44;98365.81;5312610;26;20076;-91
2023/08/29 04:37:49;;;;;;;0.17;0.17;;;;;;;23.31;60.44;98368.13;5312024;26;20066;-91
2023/08/29 04:40:16;;;;;;;0.82;0.40;;;;;;;23.35;60.43;98368.63;5312124;26;20044;-92
2023/08/29 04:42:41;;;;;;;0.90;0.60;;;;;;;23.60;60.46;98370.34;5311914;26;20032;-93
2023/08/29 04:45:08;;;;;;;0.35;0.35;;;;;;;23.41;60.44;98362.66;5311909;26;20138;-92
2023/08/29 04:47:34;;;;;;;0.73;0.73;;;;;;;23.41;60.44;98371.44;5311627;26;20066;-92
2023/08/29 04:50:00;;;;;;;0.57;0.57;;;;;;;23.23;60.43;98376.91;5311533;26;20183;-91
2023/08/29 04:52:26;;;;;;;1.75;0.68;;;;;;;23.53;60.45;98364.84;5313170;26;20064;-92
2023/08/29 04:54:52;;;;;;;13.25;0.70;;;;;;;23.54;60.45;98382.44;5329132;26;20101;-91
2023/08/29 04:57:17;;;;;;;0.05;0.00;;;;;;;23.66;60.46;98380.34;5310718;26;20318;-92
2023/08/29 04:59:43;;;;;;;0.55;0.22;;;;;;;23.76;60.46;98383.66;5310684;26;20112;-92
2023/08/29 05:02:08;;;;;;;2.05;1.85;;;;;;;23.98;60.46;98391.94;5310641;26;20135;-92
2023/08/29 05:04:34;;;;;;;0.98;0.52;;;;;;;23.91;60.47;98391.78;5311307;26;20107;-92
2023/08/29 05:06:59;;;;;;;1.02;1.02;;;;;;;23.90;60.47;98395.44;5311314;26;20099;-92
2023/08/29 05:09:25;;;;;;;3.47;0.90;;;;;;;23.98;60.47;98390.13;5311540;26;20608;-91
2023/08/29 05:11:50;;;;;;;0.30;0.30;;;;;;;24.05;60.47;98401.75;5312622;26;20086;-90
2023/08/29 05:14:16;;;;;;;0.55;0.40;;;;;;;23.89;60.46;98409.69;5312119;26;20060;-92
2023/08/29 05:16:41;;;;;;;0.75;0.75;;;;;;;24.06;60.48;98410.53;5311174;26;20056;-92
2023/08/29 05:19:07;;;;;;;1.23;0.45;;;;;;;24.25;60.48;98406.72;5311406;26;20052;-92
2023/08/29 05:21:33;;;;;;;0.30;0.30;;;;;;;24.06;60.48;98413.19;5307232;26;20119;-92
2023/08/29 05:23:59;;;;;;;0.62;0.40;;;;;;;24.11;60.47;98422.31;5307603;26;20069;-92
2023/08/29 05:26:25;;;;;;;0.32;0.22;;;;;;;24.13;60.48;98423.03;5289464;26;20055;-91
2023/08/29 05:28:50;;;;;;;0.45;0.45;;;;;;;24.18;60.48;98425.16;5289316;26;20083;-92
2023/08/29 05:31:16;;;;;;;1.50;0.70;;;;;;;24.28;60.47;98425.84;5307278;26;20080;-92
2023/08/29 05:33:41;;;;;;;0.80;0.80;;;;;;;24.31;60.49;98428.16;5291777;26;20070;-92
2023/08/29 05:36:07;;;;;;;1.52;0.88;;;;;;;24.34;60.49;98445.59;5288162;26;20096;-88
2023/08/29 05:38:32;;;;;;;2.28;1.65;;;;;;;24.55;60.50;98437.09;5289213;26;20116;-89
2023/08/29 05:40:58;;;;;;;0.05;0.05;;;;;;;24.90;60.52;98410.06;5289739;26;20091;-89
2023/08/29 05:43:24;;;;;;;0.65;0.65;;;;;;;24.71;60.51;98403.31;5289150;26;20325;-89
2023/08/29 05:45:49;;;;;;;0.85;0.85;;;;;;;24.90;60.51;98401.25;5288747;26;20051;-89
2023/08/29 05:48:15;;;;;;;0.35;0.35;;;;;;;24.96;60.52;98401.37;5288626;26;20080;-89
2023/08/29 05:50:41;;;;;;;4.20;1.50;;;;;;;25.01;60.53;98372.44;5289079;26;20061;-89
2023/08/29 05:53:06;;;;;;;2.83;0.65;;;;;;;25.07;60.52;98368.22;5289610;26;20060;-89
2023/08/29 05:55:32;;;;;;;0.55;0.55;;;;;;;24.82;60.50;98385.28;5289157;26;20056;-91
2023/08/29 05:57:59;;;;;;;0.50;0.50;;;;;;;24.83;60.51;98386.94;5307645;26;20049;-90
2023/08/29 06:00:24;;;;;;;1.55;0.45;;;;;;;24.71;60.51;98392.66;5289274;26;20061;-89
2023/08/29 06:02:52;;;;;;;1.02;0.98;;;;;;;24.45;60.50;98419.50;5289217;26;20107;-91
2023/08/29 06:05:17;;;;;;;1.58;0.60;;;;;;;24.34;60.49;98400.41;5289418;26;20070;-89
2023/08/29 06:07:43;;;;;;;2.78;1.15;;;;;;;24.29;60.49;98422.19;5288861;26;20048;-91
2023/08/29 06:10:08;;;;;;;0.95;0.95;;;;;;;24.08;60.48;98438.63;5289195;26;20732;-91
2023/08/29 06:12:34;;;;;;;3.50;1.42;;;;;;;23.88;60.46;98437.28;5307042;26;20114;-90
2023/08/29 06:14:59;;;;;;;1.65;1.48;;;;;;;24.27;60.48;98396.72;5288956;26;20151;-90
2023/08/29 06:17:25;;;;;;;1.10;1.05;;;;;;;24.15;60.48;98388.28;5288863;26;20088;-91
2023/08/29 06:19:50;;;;;;;0.60;0.60;;;;;;;24.19;60.48;98371.00;5290268;26;20076;-90
2023/08/29 06:22:16;;;;;;;0.88;0.88;;;;;;;24.05;60.47;98393.75;5302962;26;20127;-91
2023/08/29 06:24:41;;;;;;;4.55;1.70;;;;;;;23.91;60.47;98399.75;5312473;26;20056;-91
2023/08/29 06:27:07;;;;;;;0.98;0.73;;;;;;;24.02;60.47;98417.19;5312237;26;20097;-91
2023/08/29 06:29:32;;;;;;;0.30;0.30;;;;;;;23.87;60.47;98422.31;5313933;26;20064;-91
2023/08/29 06:31:58;;;;;;;1.27;1.17;;;;;;;23.84;60.47;98422.66;5348360;26;20071;-91
2023/08/29 06:34:23;;;;;;;1.12;1.05;;;;;;;23.92;60.47;98411.22;5311576;26;20506;-91
2023/08/29 06:36:49;;;;;;;0.55;0.40;;;;;;;23.87;60.47;98417.00;5311370;26;20073;-90
2023/08/29 06:39:15;;;;;;;0.85;0.55;;;;;;;24.05;60.47;98415.03;5311597;26;20079;-91
2023/08/29 06:41:40;;;;;;;0.47;0.47;;;;;;;24.03;60.47;98400.25;5330233;26;20044;-92
2023/08/29 06:44:06;;;;;;;0.00;0.00;;;;;;;24.08;60.48;98405.88;5311034;26;20075;-91
2023/08/29 06:46:31;;;;;;;3.30;2.10;;;;;;;24.24;60.48;98431.63;5311258;26;20093;-91
2023/08/29 06:48:56;;;;;;;1.45;1.35;;;;;;;24.19;60.48;98437.47;5315289;26;20122;-91
2023/08/29 06:51:22;;;;;;;0.45;0.45;;;;;;;24.12;60.47;98426.66;5311620;26;20071;-91
2023/08/29 06:53:47;;;;;;;0.15;0.15;;;;;;;24.26;60.48;98433.13;5311064;26;20366;-92
2023/08/29 06:56:16;;;;;;;1.02;1.02;;;;;;;24.28;60.47;98460.41;5311413;26;20090;-90
2023/08/29 06:58:41;;;;;;;1.58;0.82;;;;;;;24.35;60.48;98505.78;5311478;26;20084;-91
2023/08/29 07:01:07;;;;;;;0.40;0.40;;;;;;;24.37;60.48;98517.94;5311928;26;20079;-90
2023/08/29 07:03:32;;;;;;;2.22;0.65;;;;;;;24.39;60.49;98536.38;5310975;26;24789;-90
2023/08/29 07:05:58;;;;;;;1.12;1.05;;;;;;;24.36;60.48;98526.06;5311567;26;20040;-91
2023/08/29 07:08:23;;;;;;;0.10;0.10;;;;;;;23.93;60.46;98521.84;5311781;26;20060;-90
2023/08/29 07:10:50;;;;;;;2.25;0.75;;;;;;;23.82;60.47;98525.62;5313309;26;20094;-91
2023/08/29 07:13:15;;;;;;;0.37;0.30;;;;;;;23.53;60.45;98531.34;5310987;26;20071;-91
2023/08/29 07:15:41;;;;;;;0.40;0.40;;;;;;;23.40;60.44;98533.59;5311767;26;20094;-91
2023/08/29 07:18:06;;;;;;;3.33;1.27;;;;;;;23.44;60.45;98527.84;5311461;26;20065;-92
2023/08/29 07:20:32;;;;;;;0.40;0.10;;;;;;;23.41;60.44;98537.91;5311701;26;20072;-91
2023/08/29 07:22:58;;;;;;;2.00;1.65;;;;;;;23.33;60.43;98525.44;5307980;26;20060;-91
2023/08/29 07:25:42;;;;;;;1.25;1.15;;;;;;;23.28;60.44;98517.97;5307708;26;20057;-91
2023/08/29 07:28:08;;;;;;;1.10;0.65;;;;;;;23.18;60.42;98514.59;5308263;26;20060;-90
2023/08/29 07:30:34;;;;;;;0.62;0.60;;;;;;;23.24;60.43;98515.78;5299455;26;20066;-92
2023/08/29 07:32:59;;;;;;;1.15;0.77;;;;;;;23.15;60.43;98525.53;5296715;26;20096;-90
2023/08/29 07:35:25;;;;;;;2.45;0.70;;;;;;;23.34;60.43;98527.12;5290948;26;20076;-90
2023/08/29 07:37:51;;;;;;;2.42;1.60;;;;;;;23.35;60.43;98510.19;5289486;26;22755;-91
2023/08/29 07:40:17;;;;;;;0.37;0.37;;;;;;;23.48;60.44;98513.25;5290111;26;20068;-91
2023/08/29 07:42:42;;;;;;;0.98;0.98;;;;;;;23.41;60.44;98501.56;5289305;26;20066;-91
2023/08/29 07:45:08;;;;;;;1.45;0.77;;;;;;;23.35;60.43;98498.72;5289554;26;20095;-90
2023/08/29 07:47:34;;;;;;;0.37;0.37;;;;;;;23.51;60.45;98483.69;5289558;26;20391;-90
2023/08/29 07:50:00;;;;;;;0.88;0.62;;;;;;;23.54;60.45;98478.06;5289473;26;20052;-91
2023/08/29 07:52:26;;;;;;;0.77;0.30;;;;;;;23.71;60.45;98465.69;5289573;26;20153;-91
2023/08/29 07:54:51;;;;;;;2.40;2.05;;;;;;;23.78;60.45;98460.53;5307891;26;20057;-91
2023/08/29 07:57:17;;;;;;;2.20;1.65;;;;;;;23.94;60.47;98460.56;5289465;26;20056;-91
2023/08/29 07:59:42;;;;;;;0.32;0.32;;;;;;;23.86;60.46;98461.34;5289412;26;20056;-91
2023/08/29 08:02:08;;;;;;;0.55;0.55;;;;;;;23.91;60.47;98454.75;5289545;26;20067;-90
2023/08/29 08:04:33;;;;;;;3.22;2.08;;;;;;;24.05;60.47;98473.50;5291684;26;20053;-91
2023/08/29 08:06:58;;;;;;;1.02;0.88;;;;;;;23.93;60.47;98514.72;5289411;26;25473;-91
2023/08/29 08:09:24;;;;;;;3.97;1.60;;;;;;;23.99;60.47;98516.72;5289031;26;20641;-91
2023/08/29 08:11:49;;;;;;;0.50;0.30;;;;;;;24.00;60.47;98509.56;5289493;26;20051;-92
2023/08/29 08:14:17;;;;;;;1.08;0.77;;;;;;;24.01;60.47;98517.38;5289397;26;20056;-92
2023/08/29 08:16:43;;;;;;;0.20;0.20;;;;;;;23.73;60.45;98505.38;5290245;26;20060;-91
2023/08/29 08:19:09;;;;;;;0.77;0.77;;;;;;;23.72;60.45;98503.72;5289043;26;20090;-92
2023/08/29 08:21:35;;;;;;;0.43;0.43;;;;;;;23.76;60.46;98526.28;5307534;26;20056;-91
2023/08/29 08:24:03;;;;;;;1.35;0.85;;;;;;;23.72;60.45;98517.00;5307714;26;20068;-91
2023/08/29 08:26:29;;;;;;;0.43;0.43;;;;;;;23.70;60.46;98525.13;5308624;26;20404;-91
2023/08/29 08:28:54;;;;;;;1.85;1.48;;;;;;;23.80;60.46;98522.31;5325884;26;20105;-92
2023/08/29 08:31:20;;;;;;;1.70;0.68;;;;;;;23.79;60.46;98539.25;5307625;26;20052;-92
2023/08/29 08:33:46;;;;;;;1.98;0.73;;;;;;;23.79;60.46;98544.56;5307496;26;20120;-92
2023/08/29 08:36:11;;;;;;;4.15;1.00;;;;;;;23.64;60.44;98547.00;5307722;26;20061;-92
2023/08/29 08:38:36;;;;;;;2.37;1.40;;;;;;;23.78;60.46;98562.34;5307797;26;20111;-92
2023/08/29 08:41:03;;;;;;;4.22;1.00;;;;;;;23.69;60.46;98563.31;5307056;26;20072;-92
2023/08/29 08:43:29;;;;;;;0.47;0.47;;;;;;;23.68;60.45;98574.09;5307487;26;20052;-92
2023/08/29 08:45:54;;;;;;;0.10;0.10;;;;;;;23.60;60.45;98574.06;5310119;26;20025;-92
2023/08/29 08:48:20;;;;;;;0.25;0.25;;;;;;;23.64;60.45;98591.34;5307704;26;20346;-92
2023/08/29 08:50:45;;;;;;;0.37;0.32;;;;;;;23.60;60.45;98600.63;5307632;26;20127;-92
2023/08/29 08:53:11;;;;;;;0.25;0.25;;;;;;;23.53;60.45;98611.84;5307390;26;20072;-92
2023/08/29 08:55:36;;;;;;;0.10;0.10;;;;;;;23.56;60.44;98622.19;5307470;26;20077;-93
2023/08/29 08:58:02;;;;;;;1.30;1.23;;;;;;;23.58;60.44;98628.19;5307858;26;20082;-91
2023/08/29 09:00:27;;;;;;;3.80;1.83;;;;;;;23.30;60.44;98631.16;5307317;26;20388;-92
2023/08/29 09:02:53;;;;;;;0.45;0.45;;;;;;;23.37;60.44;98610.94;5307612;26;20078;-92
2023/08/29 09:05:19;;;;;;;0.85;0.47;;;;;;;23.40;60.43;98615.94;5307361;26;20068;-93
2023/08/29 09:07:44;;;;;;;0.40;0.40;;;;;;;23.13;60.42;98604.50;5320087;26;20087;-92
2023/08/29 09:10:17;;;;;;;0.50;0.50;;;;;;;23.09;60.42;98591.69;5324210;26;20064;-92
2023/08/29 09:12:46;;;;;;;0.10;0.10;;;;;;;23.05;60.43;98574.41;5362203;26;20013;-93
2023/08/29 09:15:12;;;;;;;0.45;0.45;;;;;;;23.12;60.42;98570.13;5343157;26;20033;-92
2023/08/29 09:17:43;;;;;;;0.50;0.50;;;;;;;23.00;60.42;98560.78;5308824;26;20106;-93
2023/08/29 09:20:09;;;;;;;0.73;0.73;;;;;;;23.02;60.41;98545.53;5307691;26;20020;-93
2023/08/29 09:22:44;;;;;;;0.47;0.47;;;;;;;22.96;60.42;98537.22;5307106;26;20090;-92
2023/08/29 09:25:12;;;;;;;0.40;0.40;;;;;;;22.85;60.41;98529.50;5307280;26;20052;-93
2023/08/29 09:27:50;;;;;;;1.33;0.70;;;;;;;23.01;60.41;98538.56;5307639;26;20084;-92
2023/08/29 09:30:19;;;;;;;0.50;0.50;;;;;;;22.96;60.42;98529.28;5307292;26;20048;-92
2023/08/29 09:32:46;;;;;;;1.42;1.25;;;;;;;22.98;60.42;98529.09;5307335;26;20051;-91
2023/08/29 09:35:15;;;;;;;0.35;0.35;;;;;;;22.88;60.41;98534.50;5307239;26;20082;-93
2023/08/29 09:37:45;;;;;;;0.93;0.93;;;;;;;23.00;60.42;98515.69;5307544;26;20112;-92
2023/08/29 09:40:11;;;;;;;0.90;0.85;;;;;;;;;;5307764;26;20110;-92
2023/08/29 09:42:36;;;;;;;1.60;0.57;;;;;;;23.23;60.43;98479.63;5327021;26;20085;-92
2023/08/29 09:45:02;;;;;;;3.87;0.80;;;;;;;23.27;60.42;98455.25;5307199;26;20071;-92
2023/08/29 09:47:28;;;;;;;1.33;1.15;;;;;;;23.23;60.43;98459.22;5307151;26;20060;-92
2023/08/29 09:49:54;;;;;;;0.30;0.30;;;;;;;;;;5307358;26;20069;-93
2023/08/29 09:52:22;;;;;;;0.20;0.20;;;;;;;23.14;60.42;98461.97;5325559;26;20036;-92
2023/08/29 09:54:51;;;;;;;0.20;0.20;;;;;;;;;;5307806;26;20227;-92
2023/08/29 09:57:19;;;;;;;5.33;1.37;;;;;;;23.33;60.43;98435.16;5326421;26;20074;-92
2023/08/29 09:59:45;;;;;;;0.10;0.10;;;;;;;23.38;60.44;98440.81;5326750;26;20136;-92
2023/08/29 10:02:11;;;;;;;9.77;0.52;;;;;;;23.26;60.42;98440.31;5308789;26;20395;-93
2023/08/29 10:04:44;;;;;;;0.05;0.05;;;;;;;23.41;60.43;98444.97;5307964;26;20068;-92
2023/08/29 10:07:13;;;;;;;0.52;0.52;;;;;;;23.36;60.44;98434.84;5308203;26;20060;-92
2023/08/29 10:09:39;;;;;;;0.30;0.30;;;;;;;23.50;60.44;98444.84;5308637;26;20031;-92
2023/08/29 10:12:04;;;;;;;11.20;1.30;;;;;;;23.61;60.45;98434.94;5308241;26;20052;-92
2023/08/29 10:14:31;;;;;;;0.52;0.30;;;;;;;23.54;60.44;98442.69;5307986;26;20056;-93
2023/08/29 10:16:58;;;;;;;0.60;0.22;;;;;;;23.66;60.46;98446.75;5308120;26;20076;-92
2023/08/29 10:19:24;;;;;;;1.10;0.40;;;;;;;23.88;60.46;98440.75;5308383;26;20108;-92
2023/08/29 10:21:49;;;;;;;0.50;0.50;;;;;;;23.78;60.45;98460.53;5307968;26;20084;-92
2023/08/29 10:24:15;;;;;;;0.30;0.30;;;;;;;23.81;60.47;98466.34;5328768;26;20073;-92
2023/08/29 10:26:40;;;;;;;0.73;0.73;;;;;;;23.72;60.45;98474.47;5308042;26;20444;-92
2023/08/29 10:29:06;;;;;;;0.43;0.43;;;;;;;23.86;60.46;98479.97;5307851;26;20136;-92
2023/08/29 10:31:34;;;;;;;0.25;0.22;;;;;;;24.01;60.47;98484.63;5308388;26;20074;-92
2023/08/29 10:34:03;;;;;;;0.85;0.52;;;;;;;24.00;60.47;98497.09;5308069;26;20078;-92
2023/08/29 10:36:29;;;;;;;1.52;1.42;;;;;;;23.98;60.47;98491.13;5308123;26;20064;-92
2023/08/29 10:38:56;;;;;;;1.37;1.17;;;;;;;23.93;60.46;98480.16;5308191;26;20072;-90
2023/08/29 10:41:21;;;;;;;2.37;0.60;;;;;;;23.68;60.45;98473.16;5307990;26;20071;-90
2023/08/29 10:43:49;;;;;;;1.98;0.55;;;;;;;23.62;60.45;98471.13;5307824;26;20358;-91
2023/08/29 10:46:15;;;;;;;6.55;1.52;;;;;;;23.47;60.44;98469.09;5309363;26;20115;-91
2023/08/29 10:48:43;;;;;;;2.83;0.70;;;;;;;23.53;60.44;98464.94;5309293;26;20056;-90
2023/08/29 10:51:17;;;;;;;0.55;0.55;;;;;;;23.62;60.45;98468.47;5328506;26;20021;-90
2023/08/29 10:53:54;;;;;;;1.77;1.33;;;;;;;23.74;60.46;98454.72;5316920;26;20029;-91
2023/08/29 10:56:27;;;;;;;0.57;0.57;;;;;;;24.10;60.47;98447.25;5326038;26;20069;-91
2023/08/29 10:58:53;;;;;;;0.98;0.82;;;;;;;24.54;60.50;98441.59;5312842;26;20044;-90
2023/08/29 11:01:24;;;;;;;2.83;0.85;;;;;;;24.84;60.52;98433.84;5307927;26;20052;-90
2023/08/29 11:03:50;;;;;;;0.52;0.52;;;;;;;25.09;60.52;98416.84;5325825;26;20429;-91
2023/08/29 11:06:20;;;;;;;1.77;0.90;;;;;;;25.35;60.54;98408.53;5307644;26;20071;-91
2023/08/29 11:08:45;;;;;;;0.68;0.45;;;;;;;25.39;60.54;98400.03;5307358;26;20024;-91
2023/08/29 11:11:20;;;;;;;1.52;0.55;;;;;;;25.44;60.54;98393.34;5307500;26;20071;-91
2023/08/29 11:14:02;;;;;;;0.40;0.40;;;;;;;25.56;60.55;98384.75;5307753;26;20069;-91
2023/08/29 11:16:34;;;;;;;0.40;0.40;;;;;;;25.69;60.55;98384.19;5326198;26;20098;-91
2023/08/29 11:19:03;;;;;;;0.10;0.10;;;;;;;25.82;60.55;98383.59;5313366;26;20747;-91
2023/08/29 11:21:30;;;;;;;0.20;0.10;;;;;;;25.87;60.57;98387.38;5331316;26;20020;-92
2023/08/29 11:23:56;;;;;;;0.82;0.82;;;;;;;26.04;60.57;98392.59;5312215;26;20029;-91
2023/08/29 11:26:22;;;;;;;2.83;0.85;;;;;;;26.20;60.58;98392.41;5311540;26;20052;-92
2023/08/29 11:28:47;;;;;;;0.55;0.45;;;;;;;26.49;60.60;98396.97;5311805;26;20052;-92
2023/08/29 11:31:13;;;;;;;0.65;0.45;;;;;;;26.67;60.60;98386.78;5311750;26;20067;-93
2023/08/29 11:33:38;;;;;;;0.68;0.68;;;;;;;26.85;60.61;98397.09;5311959;26;20060;-91
2023/08/29 11:36:07;;;;;;;1.58;0.62;;;;;;;26.89;60.62;98395.69;5311615;26;20359;-92
2023/08/29 11:38:33;;;;;;;0.73;0.60;;;;;;;27.18;60.62;98384.97;5332856;26;20728;-92
2023/08/29 11:41:00;;;;;;;0.93;0.93;;;;;;;27.59;60.65;98388.91;5311521;26;20039;-92
2023/08/29 11:43:25;;;;;;;0.35;0.35;;;;;;;27.80;60.66;98384.44;5330325;26;20739;-92
2023/08/29 11:45:53;;;;;;;0.30;0.30;;;;;;;28.13;60.67;98392.72;5311473;26;20068;-92
2023/08/29 11:48:25;;;;;;;0.88;0.88;;;;;;;28.37;60.68;98396.84;5311779;26;20039;-92
2023/08/29 11:50:52;;;;;;;5.80;0.47;;;;;;;28.69;60.70;98391.91;5311542;26;20044;-92
2023/08/29 11:53:27;;;;;;;0.80;0.50;;;;;;;28.69;60.70;98397.25;5311505;26;20069;-92
2023/08/29 11:55:53;;;;;;;0.17;0.17;;;;;;;28.80;60.71;98404.72;5311689;26;20060;-93
2023/08/29 11:58:18;;;;;;;0.00;0.00;;;;;;;28.63;60.69;98414.94;5311772;26;20059;-93
2023/08/29 12:00:44;;;;;;;1.45;0.85;;;;;;;28.93;60.71;98407.50;5314476;26;20048;-92
2023/08/29 12:03:10;;;;;;;0.20;0.20;;;;;;;29.16;60.72;98407.19;5311438;26;20095;-92
2023/08/29 12:05:35;;;;;;;0.52;0.52;;;;;;;29.29;60.73;98414.44;5311739;26;20112;-92
2023/08/29 12:08:01;;;;;;;2.83;0.73;;;;;;;29.14;60.73;98425.31;5311365;26;20400;-92
2023/08/29 12:10:27;;;;;;;0.50;0.50;;;;;;;29.16;60.72;98415.22;5348306;26;20434;-92